Terminal Aerodrome Forecast
Issued by NWS Bismarck, ND

Home | Current Version | Previous Version | Graphics & Text | Print | Product List | Glossary On
Versions: 1 2 3 4 5 6 7 8 9 10 11 12 13 14 15 16 17 18 19 20 21 22 23 24 25
599
FTUS43 KBIS 170941 AAC
TAFBIS
TAF AMD
KBIS 170941Z 1710/1806 29005KT P6SM BKN120
     FM171100 29007KT P6SM SCT015 BKN100
     FM171800 30011G19KT P6SM SCT200
     FM180100 VRB05KT P6SM BKN200
     FM180500 10004KT P6SM BKN070=

USA.gov is the U.S. government's official web portal to all federal, state and local government web resources and services.